sensor_id;sensor_type;location;lat;lon;timestamp;P1;durP1;ratioP1;P2;durP2;ratioP2
44564;SDS011;30275;51.822;-0.326;2023-05-07T00:01:53;1.00;;;1.00;;
44564;SDS011;30275;51.822;-0.326;2023-05-07T00:04:18;0.65;;;0.65;;
44564;SDS011;30275;51.822;-0.326;2023-05-07T00:06:44;1.33;;;1.33;;
44564;SDS011;30275;51.822;-0.326;2023-05-07T00:09:10;0.88;;;0.88;;
44564;SDS011;30275;51.822;-0.326;2023-05-07T00:11:35;2.10;;;2.00;;
44564;SDS011;30275;51.822;-0.326;2023-05-07T00:14:01;0.95;;;0.95;;
44564;SDS011;30275;51.822;-0.326;2023-05-07T00:16:27;0.32;;;0.32;;
44564;SDS011;30275;51.822;-0.326;2023-05-07T00:18:52;0.32;;;0.32;;
44564;SDS011;30275;51.822;-0.326;2023-05-07T00:21:18;1.67;;;1.58;;
44564;SDS011;30275;51.822;-0.326;2023-05-07T00:23:44;0.60;;;0.60;;
44564;SDS011;30275;51.822;-0.326;2023-05-07T00:26:09;1.35;;;1.30;;
44564;SDS011;30275;51.822;-0.326;2023-05-07T00:28:35;0.45;;;0.45;;
44564;SDS011;30275;51.822;-0.326;2023-05-07T00:31:01;0.20;;;0.20;;
44564;SDS011;30275;51.822;-0.326;2023-05-07T00:33:26;2.70;;;2.60;;
44564;SDS011;30275;51.822;-0.326;2023-05-07T00:35:52;0.30;;;0.30;;
44564;SDS011;30275;51.822;-0.326;2023-05-07T00:38:19;0.55;;;0.55;;
44564;SDS011;30275;51.822;-0.326;2023-05-07T00:40:45;0.22;;;0.22;;
44564;SDS011;30275;51.822;-0.326;2023-05-07T00:43:11;0.77;;;0.77;;
44564;SDS011;30275;51.822;-0.326;2023-05-07T00:45:37;0.50;;;0.50;;
44564;SDS011;30275;51.822;-0.326;2023-05-07T00:48:03;1.10;;;1.10;;
44564;SDS011;30275;51.822;-0.326;2023-05-07T00:50:29;1.42;;;1.42;;
44564;SDS011;30275;51.822;-0.326;2023-05-07T00:52:55;0.85;;;0.85;;
44564;SDS011;30275;51.822;-0.326;2023-05-07T00:55:21;9.73;;;3.25;;
44564;SDS011;30275;51.822;-0.326;2023-05-07T00:57:48;1.38;;;1.38;;
44564;SDS011;30275;51.822;-0.326;2023-05-07T01:00:15;1.30;;;1.30;;
44564;SDS011;30275;51.822;-0.326;2023-05-07T01:02:42;6.45;;;2.85;;
44564;SDS011;30275;51.822;-0.326;2023-05-07T01:05:09;1.02;;;1.00;;
44564;SDS011;30275;51.822;-0.326;2023-05-07T01:07:37;3.33;;;2.10;;
44564;SDS011;30275;51.822;-0.326;2023-05-07T01:10:05;15.90;;;1.25;;
44564;SDS011;30275;51.822;-0.326;2023-05-07T01:12:32;1.27;;;1.27;;
44564;SDS011;30275;51.822;-0.326;2023-05-07T01:14:59;1.20;;;1.10;;
44564;SDS011;30275;51.822;-0.326;2023-05-07T01:17:25;4.85;;;2.88;;
44564;SDS011;30275;51.822;-0.326;2023-05-07T01:19:50;0.30;;;0.30;;
44564;SDS011;30275;51.822;-0.326;2023-05-07T01:22:23;0.93;;;0.93;;
44564;SDS011;30275;51.822;-0.326;2023-05-07T01:24:58;1.02;;;1.02;;
44564;SDS011;30275;51.822;-0.326;2023-05-07T01:27:26;0.52;;;0.52;;
44564;SDS011;30275;51.822;-0.326;2023-05-07T01:29:52;1.45;;;1.38;;
44564;SDS011;30275;51.822;-0.326;2023-05-07T01:32:19;0.70;;;0.70;;
44564;SDS011;30275;51.822;-0.326;2023-05-07T01:34:52;0.85;;;0.85;;
44564;SDS011;30275;51.822;-0.326;2023-05-07T01:37:19;2.20;;;2.00;;
44564;SDS011;30275;51.822;-0.326;2023-05-07T01:39:46;0.70;;;0.60;;
44564;SDS011;30275;51.822;-0.326;2023-05-07T01:42:13;0.77;;;0.77;;
44564;SDS011;30275;51.822;-0.326;2023-05-07T01:44:38;0.30;;;0.30;;
44564;SDS011;30275;51.822;-0.326;2023-05-07T01:47:04;2.33;;;2.22;;
44564;SDS011;30275;51.822;-0.326;2023-05-07T01:49:31;0.45;;;0.45;;
44564;SDS011;30275;51.822;-0.326;2023-05-07T01:51:57;0.88;;;0.88;;
44564;SDS011;30275;51.822;-0.326;2023-05-07T01:54:26;0.65;;;0.65;;
44564;SDS011;30275;51.822;-0.326;2023-05-07T01:56:58;0.20;;;0.20;;
44564;SDS011;30275;51.822;-0.326;2023-05-07T01:59:25;1.05;;;1.05;;
44564;SDS011;30275;51.822;-0.326;2023-05-07T02:01:50;2.65;;;2.45;;
44564;SDS011;30275;51.822;-0.326;2023-05-07T02:04:16;0.40;;;0.40;;
44564;SDS011;30275;51.822;-0.326;2023-05-07T02:06:42;0.50;;;0.50;;
44564;SDS011;30275;51.822;-0.326;2023-05-07T02:09:08;2.00;;;1.92;;
44564;SDS011;30275;51.822;-0.326;2023-05-07T02:11:34;0.10;;;0.10;;
44564;SDS011;30275;51.822;-0.326;2023-05-07T02:13:59;0.10;;;0.10;;
44564;SDS011;30275;51.822;-0.326;2023-05-07T02:16:25;3.30;;;3.10;;
44564;SDS011;30275;51.822;-0.326;2023-05-07T02:18:50;0.10;;;0.10;;
44564;SDS011;30275;51.822;-0.326;2023-05-07T02:21:16;1.85;;;1.05;;
44564;SDS011;30275;51.822;-0.326;2023-05-07T02:23:42;2.22;;;2.13;;
44564;SDS011;30275;51.822;-0.326;2023-05-07T02:26:07;1.73;;;1.65;;
44564;SDS011;30275;51.822;-0.326;2023-05-07T02:28:33;2.83;;;2.60;;
44564;SDS011;30275;51.822;-0.326;2023-05-07T02:31:02;2.63;;;2.42;;
44564;SDS011;30275;51.822;-0.326;2023-05-07T02:33:28;0.45;;;0.45;;
44564;SDS011;30275;51.822;-0.326;2023-05-07T02:35:54;0.15;;;0.15;;
44564;SDS011;30275;51.822;-0.326;2023-05-07T02:38:20;0.57;;;0.57;;
44564;SDS011;30275;51.822;-0.326;2023-05-07T02:40:45;0.40;;;0.40;;
44564;SDS011;30275;51.822;-0.326;2023-05-07T02:43:11;1.55;;;1.08;;
44564;SDS011;30275;51.822;-0.326;2023-05-07T02:45:37;0.75;;;0.75;;
44564;SDS011;30275;51.822;-0.326;2023-05-07T02:48:02;0.45;;;0.45;;
44564;SDS011;30275;51.822;-0.326;2023-05-07T02:50:29;0.80;;;0.80;;
44564;SDS011;30275;51.822;-0.326;2023-05-07T02:52:54;0.30;;;0.30;;
44564;SDS011;30275;51.822;-0.326;2023-05-07T02:55:20;0.35;;;0.35;;
44564;SDS011;30275;51.822;-0.326;2023-05-07T02:57:46;1.27;;;1.27;;
44564;SDS011;30275;51.822;-0.326;2023-05-07T03:00:15;1.67;;;1.02;;
44564;SDS011;30275;51.822;-0.326;2023-05-07T03:02:41;0.20;;;0.20;;
44564;SDS011;30275;51.822;-0.326;2023-05-07T03:05:07;1.45;;;1.23;;
44564;SDS011;30275;51.822;-0.326;2023-05-07T03:07:34;0.50;;;0.50;;
44564;SDS011;30275;51.822;-0.326;2023-05-07T03:10:00;0.30;;;0.30;;
44564;SDS011;30275;51.822;-0.326;2023-05-07T03:12:26;0.57;;;0.57;;
44564;SDS011;30275;51.822;-0.326;2023-05-07T03:14:51;1.98;;;1.13;;
44564;SDS011;30275;51.822;-0.326;2023-05-07T03:17:17;1.10;;;1.10;;
44564;SDS011;30275;51.822;-0.326;2023-05-07T03:19:42;0.20;;;0.20;;
44564;SDS011;30275;51.822;-0.326;2023-05-07T03:22:08;0.60;;;0.60;;
44564;SDS011;30275;51.822;-0.326;2023-05-07T03:24:34;0.63;;;0.63;;
44564;SDS011;30275;51.822;-0.326;2023-05-07T03:26:59;0.10;;;0.10;;
44564;SDS011;30275;51.822;-0.326;2023-05-07T03:29:26;1.92;;;1.42;;
44564;SDS011;30275;51.822;-0.326;2023-05-07T03:31:51;1.77;;;1.67;;
44564;SDS011;30275;51.822;-0.326;2023-05-07T03:34:17;1.35;;;1.25;;
44564;SDS011;30275;51.822;-0.326;2023-05-07T03:36:47;0.40;;;0.40;;
44564;SDS011;30275;51.822;-0.326;2023-05-07T03:39:15;0.10;;;0.10;;
44564;SDS011;30275;51.822;-0.326;2023-05-07T03:41:41;0.82;;;0.82;;
44564;SDS011;30275;51.822;-0.326;2023-05-07T03:44:06;1.95;;;1.85;;
44564;SDS011;30275;51.822;-0.326;2023-05-07T03:46:32;0.10;;;0.10;;
44564;SDS011;30275;51.822;-0.326;2023-05-07T03:48:58;0.40;;;0.40;;
44564;SDS011;30275;51.822;-0.326;2023-05-07T03:51:24;0.10;;;0.10;;
44564;SDS011;30275;51.822;-0.326;2023-05-07T03:53:50;0.10;;;0.10;;
44564;SDS011;30275;51.822;-0.326;2023-05-07T03:56:18;0.40;;;0.40;;
44564;SDS011;30275;51.822;-0.326;2023-05-07T03:58:44;0.90;;;0.70;;
44564;SDS011;30275;51.822;-0.326;2023-05-07T04:01:09;1.70;;;1.60;;
44564;SDS011;30275;51.822;-0.326;2023-05-07T04:03:35;1.80;;;1.73;;
44564;SDS011;30275;51.822;-0.326;2023-05-07T04:06:01;0.30;;;0.30;;
44564;SDS011;30275;51.822;-0.326;2023-05-07T04:08:27;0.57;;;0.57;;
44564;SDS011;30275;51.822;-0.326;2023-05-07T04:10:58;1.40;;;1.40;;
44564;SDS011;30275;51.822;-0.326;2023-05-07T04:13:24;0.20;;;0.20;;
44564;SDS011;30275;51.822;-0.326;2023-05-07T04:15:51;0.13;;;0.13;;
44564;SDS011;30275;51.822;-0.326;2023-05-07T04:18:17;0.70;;;0.70;;
44564;SDS011;30275;51.822;-0.326;2023-05-07T04:20:43;0.68;;;0.68;;
44564;SDS011;30275;51.822;-0.326;2023-05-07T04:23:08;0.60;;;0.60;;
44564;SDS011;30275;51.822;-0.326;2023-05-07T04:25:34;0.82;;;0.82;;
44564;SDS011;30275;51.822;-0.326;2023-05-07T04:28:00;1.00;;;1.00;;
44564;SDS011;30275;51.822;-0.326;2023-05-07T04:30:25;0.98;;;0.98;;
44564;SDS011;30275;51.822;-0.326;2023-05-07T04:32:51;1.65;;;1.60;;
44564;SDS011;30275;51.822;-0.326;2023-05-07T04:35:18;3.30;;;1.98;;
44564;SDS011;30275;51.822;-0.326;2023-05-07T04:37:44;0.40;;;0.40;;
44564;SDS011;30275;51.822;-0.326;2023-05-07T04:40:09;0.45;;;0.45;;
44564;SDS011;30275;51.822;-0.326;2023-05-07T04:42:35;0.65;;;0.40;;
44564;SDS011;30275;51.822;-0.326;2023-05-07T04:45:01;1.40;;;1.40;;
44564;SDS011;30275;51.822;-0.326;2023-05-07T04:47:27;2.08;;;1.45;;
44564;SDS011;30275;51.822;-0.326;2023-05-07T04:49:52;0.38;;;0.38;;
44564;SDS011;30275;51.822;-0.326;2023-05-07T04:52:18;0.68;;;0.68;;
44564;SDS011;30275;51.822;-0.326;2023-05-07T04:54:44;1.27;;;1.17;;
44564;SDS011;30275;51.822;-0.326;2023-05-07T04:57:09;3.78;;;2.65;;
44564;SDS011;30275;51.822;-0.326;2023-05-07T04:59:35;1.30;;;1.30;;
44564;SDS011;30275;51.822;-0.326;2023-05-07T05:02:01;1.48;;;1.48;;
44564;SDS011;30275;51.822;-0.326;2023-05-07T05:04:26;1.13;;;1.13;;
44564;SDS011;30275;51.822;-0.326;2023-05-07T05:06:52;0.50;;;0.50;;
44564;SDS011;30275;51.822;-0.326;2023-05-07T05:09:17;0.22;;;0.22;;
44564;SDS011;30275;51.822;-0.326;2023-05-07T05:11:43;0.75;;;0.75;;
44564;SDS011;30275;51.822;-0.326;2023-05-07T05:14:09;0.82;;;0.82;;
44564;SDS011;30275;51.822;-0.326;2023-05-07T05:16:35;0.65;;;0.65;;
44564;SDS011;30275;51.822;-0.326;2023-05-07T05:19:01;0.50;;;0.50;;
44564;SDS011;30275;51.822;-0.326;2023-05-07T05:21:27;0.68;;;0.68;;
44564;SDS011;30275;51.822;-0.326;2023-05-07T05:23:53;0.93;;;0.93;;
44564;SDS011;30275;51.822;-0.326;2023-05-07T05:26:19;5.60;;;1.70;;
44564;SDS011;30275;51.822;-0.326;2023-05-07T05:28:46;0.43;;;0.43;;
44564;SDS011;30275;51.822;-0.326;2023-05-07T05:31:11;0.57;;;0.57;;
44564;SDS011;30275;51.822;-0.326;2023-05-07T05:33:37;0.47;;;0.47;;
44564;SDS011;30275;51.822;-0.326;2023-05-07T05:36:03;5.45;;;0.73;;
44564;SDS011;30275;51.822;-0.326;2023-05-07T05:38:29;0.35;;;0.35;;
44564;SDS011;30275;51.822;-0.326;2023-05-07T05:40:54;5.18;;;1.85;;
44564;SDS011;30275;51.822;-0.326;2023-05-07T05:43:20;0.85;;;0.85;;
44564;SDS011;30275;51.822;-0.326;2023-05-07T05:45:46;1.55;;;1.55;;
44564;SDS011;30275;51.822;-0.326;2023-05-07T05:48:11;3.20;;;1.88;;
44564;SDS011;30275;51.822;-0.326;2023-05-07T05:50:37;1.25;;;1.17;;
44564;SDS011;30275;51.822;-0.326;2023-05-07T05:53:02;1.70;;;1.58;;
44564;SDS011;30275;51.822;-0.326;2023-05-07T05:55:28;1.35;;;1.25;;
44564;SDS011;30275;51.822;-0.326;2023-05-07T05:57:54;1.00;;;1.00;;
44564;SDS011;30275;51.822;-0.326;2023-05-07T06:00:20;0.32;;;0.32;;
44564;SDS011;30275;51.822;-0.326;2023-05-07T06:02:47;0.30;;;0.30;;
44564;SDS011;30275;51.822;-0.326;2023-05-07T06:05:13;2.85;;;1.55;;
44564;SDS011;30275;51.822;-0.326;2023-05-07T06:07:39;0.75;;;0.75;;
44564;SDS011;30275;51.822;-0.326;2023-05-07T06:10:04;0.30;;;0.30;;
44564;SDS011;30275;51.822;-0.326;2023-05-07T06:12:31;0.43;;;0.43;;
44564;SDS011;30275;51.822;-0.326;2023-05-07T06:14:56;0.15;;;0.15;;
44564;SDS011;30275;51.822;-0.326;2023-05-07T06:17:22;0.15;;;0.15;;
44564;SDS011;30275;51.822;-0.326;2023-05-07T06:19:47;0.10;;;0.10;;
44564;SDS011;30275;51.822;-0.326;2023-05-07T06:22:13;0.85;;;0.85;;
44564;SDS011;30275;51.822;-0.326;2023-05-07T06:24:38;17.52;;;2.22;;
44564;SDS011;30275;51.822;-0.326;2023-05-07T06:27:04;0.20;;;0.20;;
44564;SDS011;30275;51.822;-0.326;2023-05-07T06:29:33;0.63;;;0.63;;
44564;SDS011;30275;51.822;-0.326;2023-05-07T06:32:19;1.13;;;0.82;;
44564;SDS011;30275;51.822;-0.326;2023-05-07T06:34:44;0.20;;;0.20;;
44564;SDS011;30275;51.822;-0.326;2023-05-07T06:37:10;0.52;;;0.52;;
44564;SDS011;30275;51.822;-0.326;2023-05-07T06:39:35;2.25;;;1.05;;
44564;SDS011;30275;51.822;-0.326;2023-05-07T06:42:01;0.75;;;0.75;;
44564;SDS011;30275;51.822;-0.326;2023-05-07T06:44:27;0.88;;;0.88;;
44564;SDS011;30275;51.822;-0.326;2023-05-07T06:46:53;0.57;;;0.57;;
44564;SDS011;30275;51.822;-0.326;2023-05-07T06:49:18;0.10;;;0.10;;
44564;SDS011;30275;51.822;-0.326;2023-05-07T06:51:44;0.20;;;0.20;;
44564;SDS011;30275;51.822;-0.326;2023-05-07T06:54:10;0.45;;;0.45;;
44564;SDS011;30275;51.822;-0.326;2023-05-07T06:56:35;0.20;;;0.20;;
44564;SDS011;30275;51.822;-0.326;2023-05-07T06:59:02;0.40;;;0.40;;
44564;SDS011;30275;51.822;-0.326;2023-05-07T07:01:28;2.30;;;2.17;;
44564;SDS011;30275;51.822;-0.326;2023-05-07T07:03:53;0.40;;;0.40;;
44564;SDS011;30275;51.822;-0.326;2023-05-07T07:06:19;0.20;;;0.20;;
44564;SDS011;30275;51.822;-0.326;2023-05-07T07:08:45;1.85;;;1.75;;
44564;SDS011;30275;51.822;-0.326;2023-05-07T07:11:10;0.20;;;0.20;;
44564;SDS011;30275;51.822;-0.326;2023-05-07T07:13:36;0.20;;;0.20;;
44564;SDS011;30275;51.822;-0.326;2023-05-07T07:16:02;0.77;;;0.77;;
44564;SDS011;30275;51.822;-0.326;2023-05-07T07:18:28;0.50;;;0.50;;
44564;SDS011;30275;51.822;-0.326;2023-05-07T07:20:54;0.20;;;0.20;;
44564;SDS011;30275;51.822;-0.326;2023-05-07T07:23:19;0.10;;;0.10;;
44564;SDS011;30275;51.822;-0.326;2023-05-07T07:25:45;0.10;;;0.10;;
44564;SDS011;30275;51.822;-0.326;2023-05-07T07:28:11;0.73;;;0.73;;
44564;SDS011;30275;51.822;-0.326;2023-05-07T07:30:37;3.13;;;2.10;;
44564;SDS011;30275;51.822;-0.326;2023-05-07T07:33:03;0.50;;;0.50;;
44564;SDS011;30275;51.822;-0.326;2023-05-07T07:35:30;1.17;;;1.05;;
44564;SDS011;30275;51.822;-0.326;2023-05-07T07:37:58;0.57;;;0.57;;
44564;SDS011;30275;51.822;-0.326;2023-05-07T07:40:24;0.10;;;0.10;;
44564;SDS011;30275;51.822;-0.326;2023-05-07T07:42:53;0.38;;;0.38;;
44564;SDS011;30275;51.822;-0.326;2023-05-07T07:45:19;0.17;;;0.15;;
44564;SDS011;30275;51.822;-0.326;2023-05-07T07:47:45;0.55;;;0.55;;
44564;SDS011;30275;51.822;-0.326;2023-05-07T07:50:11;0.20;;;0.20;;
44564;SDS011;30275;51.822;-0.326;2023-05-07T07:52:36;1.02;;;0.90;;
44564;SDS011;30275;51.822;-0.326;2023-05-07T07:55:02;1.58;;;1.48;;
44564;SDS011;30275;51.822;-0.326;2023-05-07T07:57:29;1.13;;;1.10;;
44564;SDS011;30275;51.822;-0.326;2023-05-07T07:59:55;1.40;;;1.08;;
44564;SDS011;30275;51.822;-0.326;2023-05-07T08:02:20;0.43;;;0.43;;
44564;SDS011;30275;51.822;-0.326;2023-05-07T08:04:46;0.43;;;0.43;;
44564;SDS011;30275;51.822;-0.326;2023-05-07T08:07:12;2.05;;;1.85;;
44564;SDS011;30275;51.822;-0.326;2023-05-07T08:09:38;0.68;;;0.68;;
44564;SDS011;30275;51.822;-0.326;2023-05-07T08:12:04;2.25;;;2.15;;
44564;SDS011;30275;51.822;-0.326;2023-05-07T08:14:31;1.48;;;0.90;;
44564;SDS011;30275;51.822;-0.326;2023-05-07T08:16:56;0.30;;;0.30;;
44564;SDS011;30275;51.822;-0.326;2023-05-07T08:19:22;0.50;;;0.50;;
44564;SDS011;30275;51.822;-0.326;2023-05-07T08:21:48;0.47;;;0.47;;
44564;SDS011;30275;51.822;-0.326;2023-05-07T08:24:14;0.70;;;0.70;;
44564;SDS011;30275;51.822;-0.326;2023-05-07T08:26:40;16.13;;;1.73;;
44564;SDS011;30275;51.822;-0.326;2023-05-07T08:29:06;1.85;;;1.75;;
44564;SDS011;30275;51.822;-0.326;2023-05-07T08:31:31;1.10;;;1.10;;
44564;SDS011;30275;51.822;-0.326;2023-05-07T08:33:57;4.22;;;1.73;;
44564;SDS011;30275;51.822;-0.326;2023-05-07T08:36:24;1.08;;;0.55;;
44564;SDS011;30275;51.822;-0.326;2023-05-07T08:38:50;3.35;;;0.85;;
44564;SDS011;30275;51.822;-0.326;2023-05-07T08:41:16;0.38;;;0.38;;
44564;SDS011;30275;51.822;-0.326;2023-05-07T08:43:42;1.45;;;0.75;;
44564;SDS011;30275;51.822;-0.326;2023-05-07T08:46:13;0.43;;;0.43;;
44564;SDS011;30275;51.822;-0.326;2023-05-07T08:48:47;0.65;;;0.65;;
44564;SDS011;30275;51.822;-0.326;2023-05-07T08:51:15;0.77;;;0.77;;
44564;SDS011;30275;51.822;-0.326;2023-05-07T08:53:43;0.22;;;0.22;;
44564;SDS011;30275;51.822;-0.326;2023-05-07T08:56:09;1.23;;;1.13;;
44564;SDS011;30275;51.822;-0.326;2023-05-07T08:58:35;0.10;;;0.10;;
44564;SDS011;30275;51.822;-0.326;2023-05-07T09:01:02;0.30;;;0.30;;
44564;SDS011;30275;51.822;-0.326;2023-05-07T09:03:32;0.38;;;0.38;;
44564;SDS011;30275;51.822;-0.326;2023-05-07T09:05:58;0.17;;;0.17;;
44564;SDS011;30275;51.822;-0.326;2023-05-07T09:08:24;1.15;;;1.15;;
44564;SDS011;30275;51.822;-0.326;2023-05-07T09:10:51;1.20;;;1.20;;
44564;SDS011;30275;51.822;-0.326;2023-05-07T09:13:17;0.38;;;0.38;;
44564;SDS011;30275;51.822;-0.326;2023-05-07T09:15:44;0.20;;;0.20;;
44564;SDS011;30275;51.822;-0.326;2023-05-07T09:18:10;8.80;;;6.65;;
44564;SDS011;30275;51.822;-0.326;2023-05-07T09:20:39;9.07;;;7.13;;
44564;SDS011;30275;51.822;-0.326;2023-05-07T09:23:05;9.15;;;7.60;;
44564;SDS011;30275;51.822;-0.326;2023-05-07T09:25:32;42.00;;;5.70;;
44564;SDS011;30275;51.822;-0.326;2023-05-07T09:28:03;1.67;;;1.23;;
44564;SDS011;30275;51.822;-0.326;2023-05-07T09:30:31;0.77;;;0.77;;
44564;SDS011;30275;51.822;-0.326;2023-05-07T09:33:01;0.77;;;0.77;;
44564;SDS011;30275;51.822;-0.326;2023-05-07T09:35:28;1.90;;;1.58;;
44564;SDS011;30275;51.822;-0.326;2023-05-07T09:37:58;0.75;;;0.75;;
44564;SDS011;30275;51.822;-0.326;2023-05-07T09:40:25;13.50;;;9.93;;
44564;SDS011;30275;51.822;-0.326;2023-05-07T09:42:54;11.80;;;8.15;;
44564;SDS011;30275;51.822;-0.326;2023-05-07T09:45:26;11.77;;;9.10;;
44564;SDS011;30275;51.822;-0.326;2023-05-07T09:47:55;14.73;;;9.25;;
44564;SDS011;30275;51.822;-0.326;2023-05-07T09:50:46;8.70;;;7.15;;
44564;SDS011;30275;51.822;-0.326;2023-05-07T09:53:17;10.25;;;7.38;;
44564;SDS011;30275;51.822;-0.326;2023-05-07T09:55:43;10.50;;;8.40;;
44564;SDS011;30275;51.822;-0.326;2023-05-07T09:58:11;12.15;;;9.27;;
44564;SDS011;30275;51.822;-0.326;2023-05-07T10:00:39;13.38;;;9.88;;
44564;SDS011;30275;51.822;-0.326;2023-05-07T10:03:06;13.18;;;8.98;;
44564;SDS011;30275;51.822;-0.326;2023-05-07T10:05:34;11.00;;;9.05;;
44564;SDS011;30275;51.822;-0.326;2023-05-07T10:08:00;10.70;;;8.18;;
44564;SDS011;30275;51.822;-0.326;2023-05-07T10:10:27;11.35;;;8.57;;
44564;SDS011;30275;51.822;-0.326;2023-05-07T10:12:54;12.60;;;8.68;;
44564;SDS011;30275;51.822;-0.326;2023-05-07T10:15:19;9.20;;;7.32;;
44564;SDS011;30275;51.822;-0.326;2023-05-07T10:17:46;9.13;;;7.07;;
44564;SDS011;30275;51.822;-0.326;2023-05-07T10:20:13;11.00;;;6.22;;
44564;SDS011;30275;51.822;-0.326;2023-05-07T10:22:40;6.72;;;5.53;;
44564;SDS011;30275;51.822;-0.326;2023-05-07T10:25:14;6.35;;;4.82;;
44564;SDS011;30275;51.822;-0.326;2023-05-07T10:27:43;6.20;;;4.50;;
44564;SDS011;30275;51.822;-0.326;2023-05-07T10:30:16;6.47;;;4.63;;
44564;SDS011;30275;51.822;-0.326;2023-05-07T10:32:55;5.97;;;4.63;;
44564;SDS011;30275;51.822;-0.326;2023-05-07T10:35:30;5.30;;;4.57;;
44564;SDS011;30275;51.822;-0.326;2023-05-07T10:38:01;5.85;;;4.90;;
44564;SDS011;30275;51.822;-0.326;2023-05-07T10:40:27;4.75;;;3.80;;
44564;SDS011;30275;51.822;-0.326;2023-05-07T10:42:55;4.70;;;3.90;;
44564;SDS011;30275;51.822;-0.326;2023-05-07T10:45:25;5.25;;;4.10;;
44564;SDS011;30275;51.822;-0.326;2023-05-07T10:50:38;5.50;;;4.15;;
44564;SDS011;30275;51.822;-0.326;2023-05-07T10:55:47;4.90;;;4.40;;
44564;SDS011;30275;51.822;-0.326;2023-05-07T10:58:29;5.70;;;4.10;;
44564;SDS011;30275;51.822;-0.326;2023-05-07T11:03:22;6.18;;;4.90;;
44564;SDS011;30275;51.822;-0.326;2023-05-07T11:05:50;6.70;;;5.15;;
44564;SDS011;30275;51.822;-0.326;2023-05-07T11:14:09;7.07;;;5.22;;
44564;SDS011;30275;51.822;-0.326;2023-05-07T11:16:34;5.10;;;4.30;;
44564;SDS011;30275;51.822;-0.326;2023-05-07T11:19:02;6.25;;;4.68;;
44564;SDS011;30275;51.822;-0.326;2023-05-07T11:21:31;6.00;;;4.63;;
44564;SDS011;30275;51.822;-0.326;2023-05-07T11:24:02;5.72;;;4.32;;
44564;SDS011;30275;51.822;-0.326;2023-05-07T11:26:30;6.97;;;5.50;;
44564;SDS011;30275;51.822;-0.326;2023-05-07T11:28:56;5.28;;;4.50;;
44564;SDS011;30275;51.822;-0.326;2023-05-07T11:31:24;6.32;;;5.22;;
44564;SDS011;30275;51.822;-0.326;2023-05-07T11:33:52;5.65;;;5.00;;
44564;SDS011;30275;51.822;-0.326;2023-05-07T11:36:19;5.70;;;5.07;;
44564;SDS011;30275;51.822;-0.326;2023-05-07T11:38:45;5.72;;;4.78;;
44564;SDS011;30275;51.822;-0.326;2023-05-07T11:41:11;5.60;;;4.57;;
44564;SDS011;30275;51.822;-0.326;2023-05-07T11:43:37;4.82;;;4.32;;
44564;SDS011;30275;51.822;-0.326;2023-05-07T11:46:13;4.63;;;4.20;;
44564;SDS011;30275;51.822;-0.326;2023-05-07T11:48:39;4.38;;;3.42;;
44564;SDS011;30275;51.822;-0.326;2023-05-07T11:51:06;3.20;;;2.90;;
44564;SDS011;30275;51.822;-0.326;2023-05-07T11:53:37;3.60;;;2.58;;
44564;SDS011;30275;51.822;-0.326;2023-05-07T11:56:08;3.22;;;2.60;;
44564;SDS011;30275;51.822;-0.326;2023-05-07T11:58:35;3.00;;;2.70;;
44564;SDS011;30275;51.822;-0.326;2023-05-07T12:01:01;2.75;;;2.47;;
44564;SDS011;30275;51.822;-0.326;2023-05-07T12:03:27;3.00;;;2.70;;
44564;SDS011;30275;51.822;-0.326;2023-05-07T12:05:53;5.43;;;3.25;;
44564;SDS011;30275;51.822;-0.326;2023-05-07T12:08:19;4.55;;;2.85;;
44564;SDS011;30275;51.822;-0.326;2023-05-07T12:10:50;4.68;;;4.22;;
44564;SDS011;30275;51.822;-0.326;2023-05-07T12:13:16;4.13;;;3.20;;
44564;SDS011;30275;51.822;-0.326;2023-05-07T12:15:43;3.47;;;2.88;;
44564;SDS011;30275;51.822;-0.326;2023-05-07T12:18:10;4.03;;;2.80;;
44564;SDS011;30275;51.822;-0.326;2023-05-07T12:20:36;4.80;;;2.92;;
44564;SDS011;30275;51.822;-0.326;2023-05-07T12:23:02;2.90;;;2.60;;
44564;SDS011;30275;51.822;-0.326;2023-05-07T12:25:31;3.72;;;3.33;;
44564;SDS011;30275;51.822;-0.326;2023-05-07T12:28:04;2.70;;;2.50;;
44564;SDS011;30275;51.822;-0.326;2023-05-07T12:30:39;3.33;;;2.80;;
44564;SDS011;30275;51.822;-0.326;2023-05-07T12:33:05;3.00;;;2.70;;
44564;SDS011;30275;51.822;-0.326;2023-05-07T12:35:31;4.70;;;2.92;;
44564;SDS011;30275;51.822;-0.326;2023-05-07T12:38:01;3.05;;;2.45;;
44564;SDS011;30275;51.822;-0.326;2023-05-07T12:40:39;2.58;;;2.03;;
44564;SDS011;30275;51.822;-0.326;2023-05-07T12:43:06;4.43;;;2.42;;
44564;SDS011;30275;51.822;-0.326;2023-05-07T12:45:41;2.75;;;2.20;;
44564;SDS011;30275;51.822;-0.326;2023-05-07T12:48:07;2.20;;;2.00;;
44564;SDS011;30275;51.822;-0.326;2023-05-07T12:50:35;3.83;;;2.92;;
44564;SDS011;30275;51.822;-0.326;2023-05-07T12:53:00;3.95;;;2.53;;
44564;SDS011;30275;51.822;-0.326;2023-05-07T12:55:31;2.67;;;2.17;;
44564;SDS011;30275;51.822;-0.326;2023-05-07T12:57:57;2.78;;;1.90;;
44564;SDS011;30275;51.822;-0.326;2023-05-07T13:00:33;3.10;;;1.90;;
44564;SDS011;30275;51.822;-0.326;2023-05-07T13:03:02;2.88;;;1.90;;
44564;SDS011;30275;51.822;-0.326;2023-05-07T13:05:28;2.22;;;1.98;;
44564;SDS011;30275;51.822;-0.326;2023-05-07T13:07:54;2.17;;;1.83;;
44564;SDS011;30275;51.822;-0.326;2023-05-07T13:10:21;3.72;;;1.75;;
44564;SDS011;30275;51.822;-0.326;2023-05-07T13:12:48;2.65;;;2.00;;
44564;SDS011;30275;51.822;-0.326;2023-05-07T13:15:14;2.00;;;1.70;;
44564;SDS011;30275;51.822;-0.326;2023-05-07T13:17:39;2.30;;;1.60;;
44564;SDS011;30275;51.822;-0.326;2023-05-07T13:20:05;2.22;;;1.55;;
44564;SDS011;30275;51.822;-0.326;2023-05-07T13:22:33;2.08;;;1.63;;
44564;SDS011;30275;51.822;-0.326;2023-05-07T13:24:58;2.13;;;1.88;;
44564;SDS011;30275;51.822;-0.326;2023-05-07T13:27:24;3.17;;;2.15;;
44564;SDS011;30275;51.822;-0.326;2023-05-07T13:29:50;2.65;;;2.10;;
44564;SDS011;30275;51.822;-0.326;2023-05-07T13:32:16;3.45;;;2.50;;
44564;SDS011;30275;51.822;-0.326;2023-05-07T13:34:41;2.35;;;1.88;;
44564;SDS011;30275;51.822;-0.326;2023-05-07T13:37:07;2.30;;;2.10;;
44564;SDS011;30275;51.822;-0.326;2023-05-07T13:39:32;2.22;;;1.80;;
44564;SDS011;30275;51.822;-0.326;2023-05-07T13:41:58;2.05;;;1.85;;
44564;SDS011;30275;51.822;-0.326;2023-05-07T13:44:24;1.98;;;1.77;;
44564;SDS011;30275;51.822;-0.326;2023-05-07T13:46:50;2.17;;;1.98;;
44564;SDS011;30275;51.822;-0.326;2023-05-07T13:49:16;2.22;;;2.00;;
44564;SDS011;30275;51.822;-0.326;2023-05-07T13:51:41;1.85;;;1.70;;
44564;SDS011;30275;51.822;-0.326;2023-05-07T13:54:07;1.75;;;1.65;;
44564;SDS011;30275;51.822;-0.326;2023-05-07T13:56:32;4.00;;;1.50;;
44564;SDS011;30275;51.822;-0.326;2023-05-07T13:58:58;2.05;;;1.70;;
44564;SDS011;30275;51.822;-0.326;2023-05-07T14:01:24;2.33;;;1.88;;
44564;SDS011;30275;51.822;-0.326;2023-05-07T14:03:49;1.77;;;1.65;;
44564;SDS011;30275;51.822;-0.326;2023-05-07T14:06:15;2.30;;;1.50;;
44564;SDS011;30275;51.822;-0.326;2023-05-07T14:08:41;2.15;;;1.90;;
44564;SDS011;30275;51.822;-0.326;2023-05-07T14:11:06;2.53;;;1.65;;
44564;SDS011;30275;51.822;-0.326;2023-05-07T14:13:32;1.80;;;1.65;;
44564;SDS011;30275;51.822;-0.326;2023-05-07T14:15:59;2.17;;;1.95;;
44564;SDS011;30275;51.822;-0.326;2023-05-07T14:18:25;2.22;;;1.40;;
44564;SDS011;30275;51.822;-0.326;2023-05-07T14:20:51;1.70;;;1.20;;
44564;SDS011;30275;51.822;-0.326;2023-05-07T14:23:17;2.05;;;1.52;;
44564;SDS011;30275;51.822;-0.326;2023-05-07T14:25:44;1.95;;;1.42;;
44564;SDS011;30275;51.822;-0.326;2023-05-07T14:28:12;1.98;;;1.17;;
44564;SDS011;30275;51.822;-0.326;2023-05-07T14:30:38;2.40;;;1.15;;
44564;SDS011;30275;51.822;-0.326;2023-05-07T14:33:03;1.67;;;1.10;;
44564;SDS011;30275;51.822;-0.326;2023-05-07T14:35:29;1.63;;;1.40;;
44564;SDS011;30275;51.822;-0.326;2023-05-07T14:37:55;3.40;;;1.40;;
44564;SDS011;30275;51.822;-0.326;2023-05-07T14:40:21;1.13;;;1.00;;
44564;SDS011;30275;51.822;-0.326;2023-05-07T14:42:46;1.45;;;1.30;;
44564;SDS011;30275;51.822;-0.326;2023-05-07T14:45:12;1.45;;;1.30;;